createdAt,value
2018-08-06T00:01:04.504Z,634
2018-08-06T00:02:11.435Z,634
2018-08-06T00:03:18.695Z,634
2018-08-06T00:04:25.889Z,634
2018-08-06T00:05:33.105Z,634
2018-08-06T00:06:40.315Z,634
2018-08-06T00:07:47.524Z,634
2018-08-06T00:08:54.740Z,635
2018-08-06T00:10:01.946Z,634
2018-08-06T00:11:08.885Z,635
2018-08-06T00:12:16.098Z,635
2018-08-06T00:13:23.308Z,635
2018-08-06T00:14:30.517Z,635
2018-08-06T00:15:37.727Z,635
2018-08-06T00:16:44.941Z,634
2018-08-06T00:17:52.152Z,634
2018-08-06T00:18:59.364Z,634
2018-08-06T00:20:06.585Z,634
2018-08-06T00:21:13.796Z,634
2018-08-06T00:22:21.012Z,634
2018-08-06T00:23:27.947Z,634
2018-08-06T00:24:35.166Z,635
2018-08-06T00:25:42.379Z,634
2018-08-06T00:26:49.321Z,634
2018-08-06T00:27:56.530Z,635
2018-08-06T00:29:03.745Z,634
2018-08-06T00:30:10.680Z,634
2018-08-06T00:31:17.889Z,635
2018-08-06T00:32:25.098Z,634
2018-08-06T00:33:32.310Z,633
2018-08-06T00:34:39.520Z,633
2018-08-06T00:35:46.733Z,634
2018-08-06T00:36:53.944Z,633
2018-08-06T00:38:01.155Z,634
2018-08-06T00:39:08.367Z,634
2018-08-06T00:40:15.576Z,634
2018-08-06T00:41:22.790Z,634
2018-08-06T00:42:30.010Z,633
2018-08-06T00:43:37.219Z,633
2018-08-06T00:44:44.431Z,633
2018-08-06T00:45:51.641Z,633
2018-08-06T00:46:58.853Z,634
2018-08-06T00:48:06.082Z,634
2018-08-06T00:49:13.031Z,634
2018-08-06T00:50:20.249Z,635
2018-08-06T00:51:27.180Z,634
2018-08-06T00:52:34.388Z,634
2018-08-06T00:53:41.604Z,634
2018-08-06T00:54:48.541Z,634
2018-08-06T00:55:55.752Z,634
2018-08-06T00:57:02.963Z,634
2018-08-06T00:58:10.175Z,634
2018-08-06T00:59:17.387Z,633
2018-08-06T01:00:24.599Z,633
2018-08-06T01:01:31.535Z,634
2018-08-06T01:02:38.746Z,633
2018-08-06T01:03:45.960Z,634
2018-08-06T01:04:53.175Z,633
2018-08-06T01:06:00.120Z,633
2018-08-06T01:07:07.330Z,633
2018-08-06T01:08:14.545Z,634
2018-08-06T01:09:21.757Z,633
2018-08-06T01:10:28.975Z,633
2018-08-06T01:11:35.914Z,633
2018-08-06T01:12:43.129Z,633
2018-08-06T01:13:50.337Z,633
2018-08-06T01:14:57.549Z,633
2018-08-06T01:16:04.770Z,632
2018-08-06T01:17:11.978Z,633
2018-08-06T01:18:19.191Z,633
2018-08-06T01:19:26.400Z,632
2018-08-06T01:20:33.609Z,632
2018-08-06T01:21:40.824Z,632
2018-08-06T01:22:48.037Z,632
2018-08-06T01:23:54.975Z,631
2018-08-06T01:25:02.186Z,632
2018-08-06T01:26:09.394Z,632
2018-08-06T01:27:16.607Z,631
2018-08-06T01:28:23.822Z,632
2018-08-06T01:29:31.031Z,631
2018-08-06T01:30:38.246Z,632
2018-08-06T01:31:45.454Z,632
2018-08-06T01:32:52.671Z,632
2018-08-06T01:33:59.883Z,631
2018-08-06T01:35:07.092Z,631
2018-08-06T01:36:14.305Z,632
2018-08-06T01:37:21.518Z,632
2018-08-06T01:38:28.729Z,631
2018-08-06T01:39:35.940Z,632
2018-08-06T01:40:43.146Z,631
2018-08-06T01:41:50.574Z,631
2018-08-06T01:42:57.772Z,631
2018-08-06T01:44:04.714Z,631
2018-08-06T01:45:11.925Z,630
2018-08-06T01:46:19.140Z,630
2018-08-06T01:47:26.349Z,630
2018-08-06T01:48:33.561Z,630
2018-08-06T01:49:40.776Z,630
2018-08-06T01:50:47.984Z,630
2018-08-06T01:51:55.198Z,630
2018-08-06T01:53:02.411Z,630
2018-08-06T01:54:09.623Z,630
2018-08-06T01:55:16.832Z,631
2018-08-06T01:56:23.771Z,630
2018-08-06T01:57:30.982Z,631
2018-08-06T01:58:38.192Z,630
2018-08-06T01:59:45.412Z,631
2018-08-06T02:00:52.622Z,630
2018-08-06T02:01:59.831Z,630
2018-08-06T02:03:06.767Z,629
2018-08-06T02:04:13.972Z,629
2018-08-06T02:05:21.188Z,629
2018-08-06T02:06:28.395Z,629
2018-08-06T02:07:35.606Z,629
2018-08-06T02:08:42.541Z,629
2018-08-06T02:09:49.753Z,628
2018-08-06T02:10:56.961Z,628
2018-08-06T02:12:04.174Z,629
2018-08-06T02:13:11.381Z,628
2018-08-06T02:14:18.317Z,628
2018-08-06T02:15:25.532Z,628
2018-08-06T02:16:32.741Z,628
2018-08-06T02:17:39.950Z,628
2018-08-06T02:18:47.163Z,629
2018-08-06T02:19:54.369Z,629
2018-08-06T02:21:01.581Z,628
2018-08-06T02:22:08.515Z,628
2018-08-06T02:23:15.728Z,628
2018-08-06T02:24:22.935Z,628
2018-08-06T02:25:30.151Z,628
2018-08-06T02:26:37.370Z,629
2018-08-06T02:27:44.578Z,628
2018-08-06T02:28:51.794Z,628
2018-08-06T02:29:59.002Z,628
2018-08-06T02:31:06.213Z,629
2018-08-06T02:32:13.424Z,629
2018-08-06T02:33:20.635Z,628
2018-08-06T02:34:27.841Z,629
2018-08-06T02:35:34.779Z,628
2018-08-06T02:36:41.717Z,628
2018-08-06T02:37:48.678Z,629
2018-08-06T02:38:55.883Z,629
2018-08-06T02:40:03.094Z,629
2018-08-06T02:41:10.034Z,628
2018-08-06T02:42:17.291Z,628
2018-08-06T02:43:24.501Z,629
2018-08-06T02:44:31.708Z,630
2018-08-06T02:45:38.646Z,630
2018-08-06T02:46:45.858Z,630
2018-08-06T02:47:53.067Z,629
2018-08-06T02:49:00.276Z,630
2018-08-06T02:50:07.211Z,630
2018-08-06T02:51:14.417Z,629
2018-08-06T02:52:21.654Z,629
2018-08-06T02:53:28.868Z,629
2018-08-06T02:54:36.078Z,629
2018-08-06T02:55:43.293Z,630
2018-08-06T02:56:50.506Z,630
2018-08-06T02:57:57.722Z,631
2018-08-06T02:59:04.936Z,630
2018-08-06T03:00:12.312Z,630
2018-08-06T03:01:19.674Z,631
2018-08-06T03:02:26.886Z,631
2018-08-06T03:03:34.103Z,631
2018-08-06T03:04:41.313Z,630
2018-08-06T03:05:48.529Z,631
2018-08-06T03:06:55.741Z,631
2018-08-06T03:08:02.950Z,631
2018-08-06T03:09:10.371Z,631
2018-08-06T03:10:17.578Z,629
2018-08-06T03:11:24.788Z,631
2018-08-06T03:12:31.998Z,631
2018-08-06T03:13:38.947Z,630
2018-08-06T03:14:46.164Z,632
2018-08-06T03:15:53.089Z,631
2018-08-06T03:17:00.486Z,631
2018-08-06T03:18:07.728Z,630
2018-08-06T03:19:14.940Z,630
2018-08-06T03:20:22.147Z,631
2018-08-06T03:21:29.358Z,630
2018-08-06T03:22:36.570Z,630
2018-08-06T03:23:43.781Z,629
2018-08-06T03:24:50.994Z,629
2018-08-06T03:25:58.207Z,630
2018-08-06T03:27:05.416Z,629
2018-08-06T03:28:12.627Z,629
2018-08-06T03:29:19.837Z,629
2018-08-06T03:30:27.047Z,629
2018-08-06T03:31:34.289Z,629
2018-08-06T03:32:41.490Z,628
2018-08-06T03:33:48.414Z,628
2018-08-06T03:34:55.629Z,628
2018-08-06T03:36:02.842Z,629
2018-08-06T03:37:10.056Z,628
2018-08-06T03:38:17.267Z,628
2018-08-06T03:39:24.484Z,629
2018-08-06T03:40:31.700Z,628
2018-08-06T03:41:38.906Z,627
2018-08-06T03:42:45.569Z,628
2018-08-06T03:43:53.005Z,626
2018-08-06T03:45:00.199Z,627
2018-08-06T03:46:07.405Z,626
2018-08-06T03:47:14.618Z,626
2018-08-06T03:48:21.827Z,627
2018-08-06T03:49:29.037Z,627
2018-08-06T03:50:36.246Z,626
2018-08-06T03:51:43.188Z,626
2018-08-06T03:52:50.561Z,627
2018-08-06T03:53:57.885Z,626
2018-08-06T03:55:05.097Z,625
2018-08-06T03:56:12.313Z,626
2018-08-06T03:57:19.515Z,626
2018-08-06T03:58:26.723Z,627
2018-08-06T03:59:33.930Z,626
2018-08-06T04:00:41.144Z,626
2018-08-06T04:01:48.347Z,625
2018-08-06T04:02:55.561Z,625
2018-08-06T04:04:02.771Z,625
2018-08-06T04:05:09.979Z,624
2018-08-06T04:06:17.191Z,626
2018-08-06T04:07:24.401Z,624
2018-08-06T04:08:31.616Z,624
2018-08-06T04:09:38.824Z,624
2018-08-06T04:10:45.761Z,624
2018-08-06T04:11:52.974Z,624
2018-08-06T04:13:00.182Z,624
2018-08-06T04:14:07.397Z,624
2018-08-06T04:15:14.608Z,623
2018-08-06T04:16:21.818Z,623
2018-08-06T04:17:29.026Z,623
2018-08-06T04:18:36.235Z,623
2018-08-06T04:19:43.658Z,623
2018-08-06T04:20:50.946Z,623
2018-08-06T04:21:58.156Z,623
2018-08-06T04:23:05.372Z,623
2018-08-06T04:24:12.576Z,624
2018-08-06T04:25:19.789Z,623
2018-08-06T04:26:26.993Z,622
2018-08-06T04:27:34.205Z,623
2018-08-06T04:28:41.411Z,623
2018-08-06T04:29:48.620Z,623
2018-08-06T04:30:55.826Z,623
2018-08-06T04:32:02.765Z,623
2018-08-06T04:33:10.205Z,623
2018-08-06T04:34:17.538Z,623
2018-08-06T04:35:24.749Z,622
2018-08-06T04:36:31.961Z,623
2018-08-06T04:37:39.169Z,622
2018-08-06T04:38:46.378Z,623
2018-08-06T04:39:53.597Z,624
2018-08-06T04:41:00.810Z,624
2018-08-06T04:42:08.023Z,624
2018-08-06T04:43:15.234Z,623
2018-08-06T04:44:22.439Z,623
2018-08-06T04:45:29.384Z,622
2018-08-06T04:46:36.595Z,623
2018-08-06T04:47:43.803Z,623
2018-08-06T04:48:51.015Z,622
2018-08-06T04:49:58.230Z,621
2018-08-06T04:51:05.448Z,622
2018-08-06T04:52:12.657Z,622
2018-08-06T04:53:19.602Z,622
2018-08-06T04:54:26.817Z,623
2018-08-06T04:55:34.029Z,623
2018-08-06T04:56:41.248Z,623
2018-08-06T04:57:48.464Z,623
2018-08-06T04:58:55.670Z,623
2018-08-06T05:00:02.885Z,623
2018-08-06T05:01:10.094Z,623
2018-08-06T05:02:17.305Z,622
2018-08-06T05:03:24.515Z,623
2018-08-06T05:04:31.724Z,623
2018-08-06T05:05:38.936Z,622
2018-08-06T05:06:46.147Z,622
2018-08-06T05:07:53.351Z,622
2018-08-06T05:09:00.560Z,622
2018-08-06T05:10:07.773Z,622
2018-08-06T05:11:14.983Z,622
2018-08-06T05:12:22.193Z,623
2018-08-06T05:13:29.400Z,621
2018-08-06T05:14:36.613Z,621
2018-08-06T05:15:43.824Z,621
2018-08-06T05:16:51.036Z,621
2018-08-06T05:17:57.969Z,621
2018-08-06T05:19:04.909Z,621
2018-08-06T05:20:12.120Z,621
2018-08-06T05:21:19.330Z,621
2018-08-06T05:22:26.541Z,621
2018-08-06T05:23:33.751Z,621
2018-08-06T05:24:40.983Z,620
2018-08-06T05:25:48.285Z,620
2018-08-06T05:26:55.493Z,620
2018-08-06T05:28:02.712Z,620
2018-08-06T05:29:09.914Z,620
2018-08-06T05:30:17.151Z,620
2018-08-06T05:31:24.524Z,620
2018-08-06T05:32:31.733Z,620
2018-08-06T05:33:38.945Z,620
2018-08-06T05:34:46.159Z,620
2018-08-06T05:35:53.369Z,619
2018-08-06T05:37:00.578Z,619
2018-08-06T05:38:07.787Z,619
2018-08-06T05:39:15.000Z,618
2018-08-06T05:40:22.211Z,617
2018-08-06T05:41:29.429Z,617
2018-08-06T05:42:36.355Z,618
2018-08-06T05:43:43.561Z,616
2018-08-06T05:44:50.501Z,617
2018-08-06T05:45:57.435Z,616
2018-08-06T05:47:04.644Z,616
2018-08-06T05:48:11.928Z,616
2018-08-06T05:49:19.142Z,614
2018-08-06T05:50:26.355Z,615
2018-08-06T05:51:33.568Z,615
2018-08-06T05:52:40.778Z,616
2018-08-06T05:53:47.996Z,615
2018-08-06T05:54:55.207Z,615
2018-08-06T05:56:02.419Z,614
2018-08-06T05:57:09.633Z,614
2018-08-06T05:58:16.994Z,613
2018-08-06T05:59:24.256Z,613
2018-08-06T06:00:31.468Z,612
2018-08-06T06:01:38.680Z,614
2018-08-06T06:02:45.885Z,613
2018-08-06T06:03:53.101Z,614
2018-08-06T06:05:00.313Z,613
2018-08-06T06:06:07.528Z,612
2018-08-06T06:07:14.745Z,612
2018-08-06T06:08:21.675Z,611
2018-08-06T06:09:28.890Z,612
2018-08-06T06:10:36.100Z,611
2018-08-06T06:11:43.315Z,611
2018-08-06T06:12:50.520Z,612
2018-08-06T06:13:57.739Z,610
2018-08-06T06:15:04.992Z,611
2018-08-06T06:16:12.205Z,610
2018-08-06T06:17:19.416Z,610
2018-08-06T06:18:26.628Z,610
2018-08-06T06:19:33.840Z,610
2018-08-06T06:20:41.059Z,610
2018-08-06T06:21:48.266Z,610
2018-08-06T06:22:55.483Z,609
2018-08-06T06:24:02.697Z,608
2018-08-06T06:25:09.905Z,609
2018-08-06T06:26:17.117Z,609
2018-08-06T06:27:24.336Z,609
2018-08-06T06:28:31.615Z,608
2018-08-06T06:29:38.893Z,608
2018-08-06T06:30:46.106Z,607
2018-08-06T06:31:53.319Z,608
2018-08-06T06:33:00.532Z,608
2018-08-06T06:34:07.750Z,609
2018-08-06T06:35:14.695Z,610
2018-08-06T06:36:21.625Z,607
2018-08-06T06:37:28.840Z,607
2018-08-06T06:38:36.084Z,607
2018-08-06T06:39:43.296Z,607
2018-08-06T06:40:50.754Z,607
2018-08-06T06:41:57.959Z,605
2018-08-06T06:43:05.180Z,606
2018-08-06T06:44:12.390Z,605
2018-08-06T06:45:19.605Z,605
2018-08-06T06:46:26.819Z,605
2018-08-06T06:47:34.040Z,605
2018-08-06T06:48:41.328Z,605
2018-08-06T06:49:48.557Z,605
2018-08-06T06:50:55.771Z,604
2018-08-06T06:52:03.006Z,605
2018-08-06T06:53:09.950Z,605
2018-08-06T06:54:17.301Z,604
2018-08-06T06:55:24.538Z,603
2018-08-06T06:56:31.756Z,604
2018-08-06T06:57:38.969Z,603
2018-08-06T06:58:46.184Z,603
2018-08-06T06:59:53.500Z,603
2018-08-06T07:01:00.770Z,602
2018-08-06T07:02:07.702Z,603
2018-08-06T07:03:14.916Z,602
2018-08-06T07:04:22.127Z,603
2018-08-06T07:05:29.337Z,601
2018-08-06T07:06:36.570Z,602
2018-08-06T07:07:43.788Z,602
2018-08-06T07:08:50.997Z,603
2018-08-06T07:09:58.212Z,603
2018-08-06T07:11:05.146Z,602
2018-08-06T07:12:12.371Z,602
2018-08-06T07:13:19.315Z,602
2018-08-06T07:14:26.263Z,601
2018-08-06T07:15:33.481Z,601
2018-08-06T07:16:40.693Z,600
2018-08-06T07:17:47.639Z,600
2018-08-06T07:18:54.856Z,600
2018-08-06T07:20:01.791Z,600
2018-08-06T07:21:09.006Z,600
2018-08-06T07:22:16.218Z,600
2018-08-06T07:23:23.439Z,599
2018-08-06T07:24:30.655Z,600
2018-08-06T07:25:37.870Z,600
2018-08-06T07:26:45.088Z,600
2018-08-06T07:27:52.300Z,599
2018-08-06T07:28:59.518Z,600
2018-08-06T07:30:06.736Z,599
2018-08-06T07:31:13.679Z,599
2018-08-06T07:32:20.621Z,599
2018-08-06T07:33:27.563Z,599
2018-08-06T07:34:34.786Z,598
2018-08-06T07:35:42.007Z,599
2018-08-06T07:36:49.219Z,598
2018-08-06T07:37:56.178Z,598
2018-08-06T07:39:03.400Z,598
2018-08-06T07:40:10.797Z,597
2018-08-06T07:41:18.071Z,598
2018-08-06T07:42:25.295Z,597
2018-08-06T07:43:32.247Z,597
2018-08-06T07:44:39.461Z,597
2018-08-06T07:45:46.677Z,597
2018-08-06T07:46:53.895Z,597
2018-08-06T07:48:01.173Z,595
2018-08-06T07:49:08.183Z,595
2018-08-06T07:50:15.400Z,595
2018-08-06T07:51:22.615Z,595
2018-08-06T07:52:29.829Z,594
2018-08-06T07:53:37.050Z,594
2018-08-06T07:54:44.259Z,594
2018-08-06T07:55:51.475Z,594
2018-08-06T07:56:58.686Z,593
2018-08-06T07:58:05.911Z,593
2018-08-06T07:59:13.135Z,593
2018-08-06T08:00:20.361Z,594
2018-08-06T08:01:27.571Z,593
2018-08-06T08:02:34.786Z,592
2018-08-06T08:03:42.004Z,591
2018-08-06T08:04:49.228Z,592
2018-08-06T08:05:56.442Z,592
2018-08-06T08:07:03.668Z,591
2018-08-06T08:08:10.620Z,592
2018-08-06T08:09:17.843Z,591
2018-08-06T08:10:25.056Z,591
2018-08-06T08:11:32.279Z,591
2018-08-06T08:12:39.496Z,590
2018-08-06T08:13:46.715Z,590
2018-08-06T08:14:54.068Z,589
2018-08-06T08:16:01.282Z,589
2018-08-06T08:17:08.225Z,589
2018-08-06T08:18:15.670Z,590
2018-08-06T08:19:22.919Z,590
2018-08-06T08:20:30.190Z,590
2018-08-06T08:21:37.128Z,589
2018-08-06T08:22:44.347Z,588
2018-08-06T08:23:51.570Z,589
2018-08-06T08:24:58.521Z,589
2018-08-06T08:26:05.741Z,588
2018-08-06T08:27:12.960Z,589
2018-08-06T08:28:20.182Z,589
2018-08-06T08:29:27.402Z,588
2018-08-06T08:30:34.629Z,589
2018-08-06T08:31:41.851Z,588
2018-08-06T08:32:49.071Z,590
2018-08-06T08:33:56.414Z,590
2018-08-06T08:35:03.723Z,589
2018-08-06T08:36:10.674Z,589
2018-08-06T08:37:17.890Z,589
2018-08-06T08:38:25.109Z,588
2018-08-06T08:39:32.386Z,588
2018-08-06T08:40:39.692Z,587
2018-08-06T08:41:46.905Z,587
2018-08-06T08:42:53.841Z,586
2018-08-06T08:44:01.063Z,586
2018-08-06T08:45:08.294Z,585
2018-08-06T08:46:15.496Z,587
2018-08-06T08:47:22.171Z,586
2018-08-06T08:48:29.383Z,586
2018-08-06T08:49:36.598Z,586
2018-08-06T08:50:43.816Z,585
2018-08-06T08:51:51.036Z,588
2018-08-06T08:52:58.246Z,587
2018-08-06T08:54:05.465Z,586
2018-08-06T08:55:12.683Z,586
2018-08-06T08:56:19.899Z,586
2018-08-06T08:57:27.117Z,585
2018-08-06T08:58:34.532Z,586
2018-08-06T08:59:41.873Z,584
2018-08-06T09:00:49.102Z,524
2018-08-06T09:01:56.319Z,523
2018-08-06T09:03:03.270Z,538
2018-08-06T09:04:10.482Z,547
2018-08-06T09:05:17.705Z,552
2018-08-06T09:06:24.920Z,554
2018-08-06T09:07:31.862Z,559
2018-08-06T09:08:39.075Z,562
2018-08-06T09:09:46.306Z,564
2018-08-06T09:10:53.252Z,564
2018-08-06T09:12:00.198Z,565
2018-08-06T09:13:07.419Z,567
2018-08-06T09:14:14.631Z,571
2018-08-06T09:15:21.852Z,583
2018-08-06T09:16:29.078Z,585
2018-08-06T09:17:36.297Z,585
2018-08-06T09:18:43.510Z,585
2018-08-06T09:19:50.728Z,584
2018-08-06T09:20:57.946Z,583
2018-08-06T09:22:05.162Z,584
2018-08-06T09:23:12.424Z,583
2018-08-06T09:24:19.631Z,584
2018-08-06T09:25:26.849Z,584
2018-08-06T09:26:34.074Z,583
2018-08-06T09:27:41.304Z,583
2018-08-06T09:28:48.526Z,583
2018-08-06T09:29:55.743Z,582
2018-08-06T09:31:02.685Z,583
2018-08-06T09:32:09.628Z,582
2018-08-06T09:33:16.846Z,583
2018-08-06T09:34:24.075Z,583
2018-08-06T09:35:31.295Z,583
2018-08-06T09:36:38.536Z,584
2018-08-06T09:37:45.753Z,583
2018-08-06T09:38:52.971Z,583
2018-08-06T09:40:00.190Z,583
2018-08-06T09:41:07.410Z,583
2018-08-06T09:42:14.628Z,583
2018-08-06T09:43:21.847Z,581
2018-08-06T09:44:29.088Z,581
2018-08-06T09:45:36.311Z,581
2018-08-06T09:46:43.528Z,579
2018-08-06T09:47:50.751Z,583
2018-08-06T09:48:57.973Z,584
2018-08-06T09:50:05.185Z,583
2018-08-06T09:51:12.409Z,582
2018-08-06T09:52:19.627Z,582
2018-08-06T09:53:26.846Z,582
2018-08-06T09:54:33.795Z,580
2018-08-06T09:55:40.735Z,579
2018-08-06T09:56:47.982Z,579
2018-08-06T09:57:55.184Z,580
2018-08-06T09:59:02.405Z,579
2018-08-06T10:00:09.621Z,579
2018-08-06T10:01:16.836Z,579
2018-08-06T10:02:24.057Z,576
2018-08-06T10:03:31.280Z,575
2018-08-06T10:04:38.499Z,575
2018-08-06T10:05:46.263Z,571
2018-08-06T10:06:53.405Z,568
2018-08-06T10:08:00.623Z,565
2018-08-06T10:09:07.851Z,563
2018-08-06T10:10:15.068Z,560
2018-08-06T10:11:22.023Z,560
2018-08-06T10:12:29.240Z,559
2018-08-06T10:13:36.464Z,558
2018-08-06T10:14:43.675Z,557
2018-08-06T10:15:50.900Z,557
2018-08-06T10:16:58.120Z,562
2018-08-06T10:18:05.352Z,558
2018-08-06T10:19:12.999Z,554
2018-08-06T10:20:20.585Z,553
2018-08-06T10:21:27.808Z,552
2018-08-06T10:22:35.025Z,552
2018-08-06T10:23:42.255Z,549
2018-08-06T10:24:49.467Z,548
2018-08-06T10:25:56.683Z,548
2018-08-06T10:27:03.906Z,546
2018-08-06T10:28:10.862Z,544
2018-08-06T10:29:18.078Z,545
2018-08-06T10:30:25.733Z,548
2018-08-06T10:31:33.189Z,552
2018-08-06T10:32:40.416Z,552
2018-08-06T10:33:47.644Z,553
2018-08-06T10:34:54.858Z,550
2018-08-06T10:36:01.804Z,545
2018-08-06T10:37:08.746Z,544
2018-08-06T10:38:15.971Z,538
2018-08-06T10:39:22.914Z,538
2018-08-06T10:40:30.364Z,537
2018-08-06T10:41:37.808Z,543
2018-08-06T10:42:45.036Z,543
2018-08-06T10:43:52.260Z,543
2018-08-06T10:44:59.475Z,542
2018-08-06T10:46:06.703Z,541
2018-08-06T10:47:13.920Z,539
2018-08-06T10:48:21.528Z,538
2018-08-06T10:49:28.845Z,537
2018-08-06T10:50:36.065Z,545
2018-08-06T10:51:43.289Z,546
2018-08-06T10:52:50.515Z,543
2018-08-06T10:53:57.859Z,542
2018-08-06T10:55:05.152Z,545
2018-08-06T10:56:12.100Z,544
2018-08-06T10:57:19.337Z,542
2018-08-06T10:58:26.556Z,542
2018-08-06T10:59:33.869Z,545
2018-08-06T11:00:41.181Z,541
2018-08-06T11:01:48.399Z,539
2018-08-06T11:02:55.234Z,543
2018-08-06T11:04:02.542Z,543
2018-08-06T11:05:09.763Z,540
2018-08-06T11:06:16.978Z,540
2018-08-06T11:07:24.210Z,544
2018-08-06T11:08:31.152Z,548
2018-08-06T11:09:38.376Z,544
2018-08-06T11:10:45.596Z,540
2018-08-06T11:11:52.822Z,540
2018-08-06T11:12:59.783Z,536
2018-08-06T11:14:07.185Z,536
2018-08-06T11:15:14.503Z,535
2018-08-06T11:16:21.720Z,534
2018-08-06T11:17:28.942Z,535
2018-08-06T11:18:36.167Z,535
2018-08-06T11:19:43.391Z,538
2018-08-06T11:20:50.613Z,538
2018-08-06T11:21:57.835Z,535
2018-08-06T11:23:05.062Z,537
2018-08-06T11:24:12.009Z,538
2018-08-06T11:25:19.233Z,537
2018-08-06T11:26:26.457Z,549
2018-08-06T11:27:33.691Z,555
2018-08-06T11:28:40.924Z,553
2018-08-06T11:29:48.150Z,545
2018-08-06T11:30:55.373Z,541
2018-08-06T11:32:02.055Z,538
2018-08-06T11:33:09.277Z,542
2018-08-06T11:34:16.491Z,540
2018-08-06T11:35:23.720Z,538
2018-08-06T11:36:30.942Z,539
2018-08-06T11:37:38.163Z,542
2018-08-06T11:38:45.388Z,546
2018-08-06T11:39:52.602Z,546
2018-08-06T11:40:59.819Z,543
2018-08-06T11:42:07.039Z,541
2018-08-06T11:43:14.267Z,538
2018-08-06T11:44:21.491Z,538
2018-08-06T11:45:28.709Z,541
2018-08-06T11:46:35.929Z,541
2018-08-06T11:47:43.148Z,539
2018-08-06T11:48:50.511Z,541
2018-08-06T11:49:57.561Z,540
2018-08-06T11:51:04.812Z,539
2018-08-06T11:52:12.028Z,537
2018-08-06T11:53:19.248Z,541
2018-08-06T11:54:26.469Z,541
2018-08-06T11:55:33.420Z,541
2018-08-06T11:56:41.037Z,537
2018-08-06T11:57:48.486Z,539
2018-08-06T11:58:55.705Z,547
2018-08-06T12:00:02.933Z,555
2018-08-06T12:01:10.166Z,556
2018-08-06T12:02:17.372Z,561
2018-08-06T12:03:24.601Z,557
2018-08-06T12:04:31.823Z,559
2018-08-06T12:05:39.119Z,554
2018-08-06T12:06:46.102Z,563
2018-08-06T12:07:53.321Z,557
2018-08-06T12:09:00.543Z,556
2018-08-06T12:10:07.760Z,551
2018-08-06T12:11:14.983Z,544
2018-08-06T12:12:21.930Z,543
2018-08-06T12:13:29.159Z,548
2018-08-06T12:14:36.383Z,548
2018-08-06T12:15:43.609Z,555
2018-08-06T12:16:50.551Z,555
2018-08-06T12:17:57.777Z,551
2018-08-06T12:19:04.731Z,548
2018-08-06T12:20:11.966Z,551
2018-08-06T12:21:19.177Z,559
2018-08-06T12:22:26.125Z,561
2018-08-06T12:23:33.458Z,553
2018-08-06T12:24:40.692Z,551
2018-08-06T12:25:48.069Z,556
2018-08-06T12:26:55.353Z,556
2018-08-06T12:28:02.584Z,556
2018-08-06T12:29:09.816Z,556
2018-08-06T12:30:16.771Z,561
2018-08-06T12:31:24.042Z,559
2018-08-06T12:32:31.340Z,559
2018-08-06T12:33:38.563Z,563
2018-08-06T12:34:45.860Z,562
2018-08-06T12:35:53.071Z,559
2018-08-06T12:37:00.295Z,552
2018-08-06T12:38:07.604Z,556
2018-08-06T12:39:14.575Z,554
2018-08-06T12:40:21.798Z,557
2018-08-06T12:41:29.023Z,550
2018-08-06T12:42:36.243Z,545
2018-08-06T12:43:43.460Z,551
2018-08-06T12:44:50.679Z,551
2018-08-06T12:45:57.630Z,548
2018-08-06T12:47:04.856Z,554
2018-08-06T12:48:12.089Z,551
2018-08-06T12:49:19.328Z,548
2018-08-06T12:50:26.550Z,547
2018-08-06T12:51:33.810Z,546
2018-08-06T12:52:41.061Z,548
2018-08-06T12:53:48.080Z,551
2018-08-06T12:54:55.313Z,549
2018-08-06T12:56:02.565Z,553
2018-08-06T12:57:09.930Z,551
2018-08-06T12:58:17.223Z,551
2018-08-06T12:59:24.438Z,551
2018-08-06T13:00:31.393Z,548
2018-08-06T13:01:38.613Z,548
2018-08-06T13:02:45.844Z,545
2018-08-06T13:03:53.068Z,554
2018-08-06T13:05:00.380Z,552
2018-08-06T13:06:07.740Z,552
2018-08-06T13:07:14.996Z,555
2018-08-06T13:08:22.222Z,560
2018-08-06T13:09:29.440Z,555
2018-08-06T13:10:36.681Z,550
2018-08-06T13:11:43.623Z,548
2018-08-06T13:12:50.845Z,547
2018-08-06T13:13:58.077Z,547
2018-08-06T13:15:05.303Z,548
2018-08-06T13:16:12.522Z,547
2018-08-06T13:17:19.469Z,546
2018-08-06T13:18:26.693Z,551
2018-08-06T13:19:33.653Z,558
2018-08-06T13:20:40.873Z,555
2018-08-06T13:21:48.093Z,559
2018-08-06T13:22:54.782Z,564
2018-08-06T13:24:02.011Z,568
2018-08-06T13:25:09.314Z,559
2018-08-06T13:26:16.548Z,554
2018-08-06T13:27:23.806Z,551
2018-08-06T13:28:31.010Z,551
2018-08-06T13:29:38.238Z,551
2018-08-06T13:30:45.192Z,550
2018-08-06T13:31:52.145Z,553
2018-08-06T13:32:59.369Z,561
2018-08-06T13:34:06.588Z,564
2018-08-06T13:35:13.539Z,560
2018-08-06T13:36:20.764Z,558
2018-08-06T13:37:27.438Z,556
2018-08-06T13:38:34.666Z,552
2018-08-06T13:39:41.902Z,549
2018-08-06T13:40:48.859Z,552
2018-08-06T13:41:56.082Z,551
2018-08-06T13:43:03.311Z,551
2018-08-06T13:44:10.539Z,550
2018-08-06T13:45:17.764Z,550
2018-08-06T13:46:25.024Z,551
2018-08-06T13:47:32.248Z,550
2018-08-06T13:48:39.475Z,550
2018-08-06T13:49:46.701Z,550
2018-08-06T13:50:53.938Z,559
2018-08-06T13:52:00.881Z,570
2018-08-06T13:53:08.426Z,573
2018-08-06T13:54:15.847Z,577
2018-08-06T13:55:23.072Z,582
2018-08-06T13:56:30.017Z,575
2018-08-06T13:57:37.238Z,571
2018-08-06T13:58:44.461Z,576
2018-08-06T13:59:51.688Z,577
2018-08-06T14:00:58.914Z,578
2018-08-06T14:02:06.142Z,573
2018-08-06T14:03:13.421Z,571
2018-08-06T14:04:20.646Z,572
2018-08-06T14:05:28.004Z,569
2018-08-06T14:06:35.401Z,562
2018-08-06T14:07:42.626Z,560
2018-08-06T14:08:49.852Z,563
2018-08-06T14:09:56.791Z,558
2018-08-06T14:11:04.039Z,560
2018-08-06T14:12:11.275Z,567
2018-08-06T14:13:18.501Z,576
2018-08-06T14:14:25.721Z,579
2018-08-06T14:15:32.945Z,578
2018-08-06T14:16:39.900Z,578
2018-08-06T14:17:47.144Z,576
2018-08-06T14:18:54.377Z,575
2018-08-06T14:20:01.600Z,574
2018-08-06T14:21:08.826Z,574
2018-08-06T14:22:16.060Z,573
2018-08-06T14:23:23.011Z,569
2018-08-06T14:24:30.242Z,568
2018-08-06T14:25:37.460Z,563
2018-08-06T14:26:44.686Z,557
2018-08-06T14:27:51.630Z,556
2018-08-06T14:28:58.857Z,554
2018-08-06T14:30:06.082Z,554
2018-08-06T14:31:13.301Z,553
2018-08-06T14:32:20.539Z,552
2018-08-06T14:33:27.763Z,551
2018-08-06T14:34:34.724Z,552
2018-08-06T14:35:41.954Z,558
2018-08-06T14:36:49.178Z,566
2018-08-06T14:37:56.403Z,561
2018-08-06T14:39:03.627Z,557
2018-08-06T14:40:10.573Z,557
2018-08-06T14:41:17.795Z,555
2018-08-06T14:42:25.029Z,559
2018-08-06T14:43:32.257Z,567
2018-08-06T14:44:39.486Z,566
2018-08-06T14:45:46.713Z,561
2018-08-06T14:46:53.941Z,558
2018-08-06T14:48:01.168Z,558
2018-08-06T14:49:08.388Z,561
2018-08-06T14:50:15.611Z,570
2018-08-06T14:51:22.837Z,570
2018-08-06T14:52:30.067Z,567
2018-08-06T14:53:37.022Z,564
2018-08-06T14:54:44.246Z,563
2018-08-06T14:55:51.474Z,566
2018-08-06T14:56:58.423Z,570
2018-08-06T14:58:05.650Z,573
2018-08-06T14:59:12.876Z,582
2018-08-06T15:00:20.099Z,583
2018-08-06T15:01:27.049Z,581
2018-08-06T15:02:34.271Z,580
2018-08-06T15:03:41.494Z,584
2018-08-06T15:04:48.721Z,588
2018-08-06T15:05:55.948Z,581
2018-08-06T15:07:03.176Z,582
2018-08-06T15:08:10.134Z,578
2018-08-06T15:09:17.559Z,577
2018-08-06T15:10:25.042Z,574
2018-08-06T15:11:32.680Z,576
2018-08-06T15:12:39.685Z,578
2018-08-06T15:13:46.912Z,582
2018-08-06T15:14:54.136Z,580
2018-08-06T15:16:01.579Z,580
2018-08-06T15:17:09.028Z,572
2018-08-06T15:18:16.416Z,567
2018-08-06T15:19:23.641Z,566
2018-08-06T15:20:30.874Z,569
2018-08-06T15:21:38.109Z,568
2018-08-06T15:22:45.330Z,570
2018-08-06T15:23:52.554Z,572
2018-08-06T15:24:59.789Z,577
2018-08-06T15:26:07.166Z,587